PGRO/ROP METAR and TAF weather

Enter ICAO airport designator
Station Type Date Time Source
PGRO METAR 2022/06/25 23:50 UTC NOAA

PGRO 252350Z 08012G18KT 7SM SCT016 29/23 A2985


Station Type Date Time Source
PGRO Decoded METAR 2022/06/25 23:50 UTC NOAA

Rota Island, N. Mariana Is, Rota International Airport, GU, United States (PGRO) 14-11N 145-15E
Jun 25, 2022 - 07:50 PM EDT / 2022.06.25 2350 UTC
Wind: from the E (080 degrees) at 14 MPH (12 KT) gusting to 21 MPH (18 KT):0
Visibility: 7 mile(s):0
Sky conditions: partly cloudy
Temperature: 84 F (29 C)
Dew Point: 73 F (23 C)
Relative Humidity: 70%
Pressure (altimeter): 29.85 in. Hg (1010 hPa)
ob: PGRO 252350Z 08012G18KT 7SM SCT016 29/23 A2985
cycle: 0

Station Type Date Time Source
PGRO TAF 2022/06/25 06:27 UTC NOAA

TAF PGRO 250525Z 2506/2606 09011KT P6SM VCSH SCT017 SCT040

Example: see airport list